createdAt,value
2022-09-05T00:02:29.024Z,99.90
2022-09-05T00:05:29.293Z,99.90
2022-09-05T00:08:23.257Z,99.90
2022-09-05T00:11:41.055Z,99.90
2022-09-05T00:15:15.956Z,99.90
2022-09-05T00:24:18.581Z,99.90
2022-09-05T00:24:26.079Z,99.90
2022-09-05T00:25:07.247Z,99.90
2022-09-05T00:28:25.128Z,99.90
2022-09-05T00:31:54.134Z,99.90
2022-09-05T00:34:58.265Z,99.90
2022-09-05T00:37:49.288Z,99.90
2022-09-05T00:40:39.747Z,99.90
2022-09-05T00:43:30.217Z,99.90
2022-09-05T00:46:19.810Z,99.90
2022-09-05T00:49:18.614Z,99.90
2022-09-05T00:52:11.239Z,99.90
2022-09-05T00:55:11.865Z,99.90
2022-09-05T00:58:12.227Z,99.90
2022-09-05T01:00:59.790Z,99.90
2022-09-05T01:03:57.785Z,99.90
2022-09-05T01:07:04.760Z,99.90
2022-09-05T01:10:05.042Z,99.90
2022-09-05T01:13:12.980Z,99.90
2022-09-05T01:16:07.514Z,99.90
2022-09-05T01:19:15.773Z,99.90
2022-09-05T01:22:29.386Z,99.90
2022-09-05T01:25:40.432Z,99.90
2022-09-05T01:29:13.614Z,99.90
2022-09-05T01:32:06.451Z,99.90
2022-09-05T01:35:25.782Z,99.90
2022-09-05T01:38:19.147Z,99.90
2022-09-05T01:41:21.739Z,99.90
2022-09-05T01:44:20.502Z,99.90
2022-09-05T01:47:30.861Z,99.90
2022-09-05T01:50:35.246Z,99.90
2022-09-05T01:53:32.530Z,99.90
2022-09-05T01:56:36.702Z,99.90
2022-09-05T01:59:34.887Z,99.90
2022-09-05T02:02:39.126Z,99.90
2022-09-05T02:05:57.263Z,99.90
2022-09-05T02:09:08.674Z,99.90
2022-09-05T02:11:59.426Z,99.90
2022-09-05T02:14:55.698Z,99.90
2022-09-05T02:17:51.824Z,99.90
2022-09-05T02:20:46.747Z,99.90
2022-09-05T02:23:44.834Z,99.90
2022-09-05T02:26:37.085Z,99.90
2022-09-05T02:29:30.086Z,99.90
2022-09-05T02:32:22.195Z,99.90
2022-09-05T02:35:17.674Z,99.90
2022-09-05T02:39:28.340Z,99.90
2022-09-05T02:45:07.953Z,99.90
2022-09-05T02:45:11.901Z,99.90
2022-09-05T02:47:55.670Z,99.90
2022-09-05T02:55:16.296Z,99.90
2022-09-05T02:57:32.670Z,99.90
2022-09-05T02:58:07.089Z,99.90
2022-09-05T03:00:53.229Z,99.90
2022-09-05T03:03:49.894Z,99.90
2022-09-05T03:06:45.042Z,99.90
2022-09-05T03:09:44.098Z,99.90
2022-09-05T03:13:06.977Z,99.90
2022-09-05T03:16:18.030Z,99.90
2022-09-05T03:19:46.724Z,99.90
2022-09-05T03:23:28.167Z,99.90
2022-09-05T03:26:38.677Z,99.90
2022-09-05T03:29:58.842Z,99.90
2022-09-05T03:33:17.409Z,99.90
2022-09-05T03:36:46.785Z,99.90
2022-09-05T03:40:15.225Z,99.90
2022-09-05T03:43:46.938Z,99.90
2022-09-05T03:46:49.046Z,99.90
2022-09-05T03:53:11.467Z,99.90
2022-09-05T03:57:17.061Z,99.90
2022-09-05T03:57:24.721Z,99.90
2022-09-05T04:00:09.104Z,99.90
2022-09-05T04:08:08.030Z,99.90
2022-09-05T04:08:19.114Z,99.90
2022-09-05T04:09:50.426Z,99.90
2022-09-05T04:12:47.306Z,99.90
2022-09-05T04:15:39.721Z,99.90
2022-09-05T04:18:34.294Z,99.90
2022-09-05T04:21:25.889Z,99.90
2022-09-05T04:24:18.995Z,99.90
2022-09-05T04:27:30.858Z,99.90
2022-09-05T04:30:39.311Z,99.90
2022-09-05T04:33:37.341Z,99.90
2022-09-05T04:36:28.990Z,99.90
2022-09-05T04:39:26.556Z,99.90
2022-09-05T04:42:21.238Z,99.90
2022-09-05T04:45:24.042Z,99.90
2022-09-05T04:48:15.773Z,99.90
2022-09-05T04:51:08.441Z,99.90
2022-09-05T04:54:29.991Z,99.90
2022-09-05T04:57:23.905Z,99.90
2022-09-05T05:06:01.008Z,99.90
2022-09-05T05:06:17.548Z,99.90
2022-09-05T05:06:45.877Z,99.90
2022-09-05T05:09:39.161Z,99.90
2022-09-05T05:17:53.971Z,99.90
2022-09-05T05:18:15.463Z,99.90
2022-09-05T05:19:18.689Z,99.90
2022-09-05T05:22:13.988Z,99.90
2022-09-05T05:25:02.614Z,99.90
2022-09-05T05:28:01.870Z,99.90
2022-09-05T05:31:13.902Z,99.90
2022-09-05T05:34:03.806Z,99.90
2022-09-05T05:37:01.412Z,99.90
2022-09-05T05:39:51.059Z,99.90
2022-09-05T05:42:40.705Z,99.90
2022-09-05T05:45:30.192Z,99.90
2022-09-05T05:48:33.280Z,99.90
2022-09-05T05:51:53.361Z,99.90
2022-09-05T05:54:49.780Z,99.90
2022-09-05T05:58:02.403Z,99.90
2022-09-05T06:01:38.100Z,99.90
2022-09-05T06:04:52.455Z,99.90
2022-09-05T06:10:14.390Z,99.90
2022-09-05T06:14:52.657Z,99.90
2022-09-05T06:15:27.551Z,99.90
2022-09-05T06:18:45.731Z,99.90
2022-09-05T06:22:14.125Z,99.90
2022-09-05T06:25:39.069Z,99.90
2022-09-05T06:28:37.711Z,99.90
2022-09-05T06:31:55.038Z,99.90
2022-09-05T06:35:04.125Z,99.90
2022-09-05T06:38:12.808Z,99.90
2022-09-05T06:41:19.448Z,99.90
2022-09-05T06:44:30.971Z,99.90
2022-09-05T06:47:23.963Z,99.90
2022-09-05T06:50:27.522Z,99.90
2022-09-05T06:53:45.821Z,99.90
2022-09-05T06:56:54.547Z,99.90
2022-09-05T07:00:10.302Z,99.90
2022-09-05T07:03:26.657Z,99.90
2022-09-05T07:06:24.914Z,99.90
2022-09-05T07:09:42.727Z,99.90
2022-09-05T07:12:33.025Z,99.90
2022-09-05T07:15:34.406Z,99.90
2022-09-05T07:18:27.255Z,99.90
2022-09-05T07:24:53.361Z,99.90
2022-09-05T07:27:46.827Z,99.90
2022-09-05T07:30:50.790Z,99.90
2022-09-05T07:33:40.021Z,99.90
2022-09-05T07:36:37.554Z,99.90
2022-09-05T07:39:29.519Z,99.90
2022-09-05T07:45:10.774Z,99.90
2022-09-05T07:48:02.418Z,99.90
2022-09-05T07:55:54.686Z,99.90
2022-09-05T07:56:50.755Z,99.90
2022-09-05T07:57:27.077Z,99.90
2022-09-05T08:00:26.148Z,99.90
2022-09-05T08:03:16.999Z,99.90
2022-09-05T08:06:09.029Z,99.90
2022-09-05T08:09:21.524Z,99.90
2022-09-05T08:12:16.179Z,99.90
2022-09-05T08:15:10.177Z,99.90
2022-09-05T08:18:11.093Z,99.90
2022-09-05T08:21:05.149Z,99.90
2022-09-05T08:23:57.831Z,99.90
2022-09-05T08:26:47.708Z,99.90
2022-09-05T08:29:39.334Z,99.90
2022-09-05T08:32:38.832Z,99.90
2022-09-05T08:35:31.874Z,99.90
2022-09-05T08:38:18.745Z,99.90
2022-09-05T08:41:14.183Z,99.90
2022-09-05T08:46:42.972Z,99.90
2022-09-05T08:47:27.807Z,99.90
2022-09-05T08:51:09.030Z,99.90
2022-09-05T08:54:10.101Z,99.90
2022-09-05T08:57:02.940Z,99.90
2022-09-05T09:00:18.919Z,99.90
2022-09-05T09:03:14.548Z,99.90
2022-09-05T09:06:35.311Z,99.90
2022-09-05T09:09:35.165Z,99.90
2022-09-05T09:13:09.461Z,99.90
2022-09-05T09:16:06.393Z,99.90
2022-09-05T09:19:10.098Z,99.90
2022-09-05T09:22:10.132Z,99.90
2022-09-05T09:25:15.288Z,99.90
2022-09-05T09:28:47.918Z,99.90
2022-09-05T09:31:44.095Z,99.90
2022-09-05T09:34:53.373Z,99.90
2022-09-05T09:38:03.662Z,99.90
2022-09-05T09:41:26.843Z,99.90
2022-09-05T09:44:58.040Z,99.90
2022-09-05T09:48:02.905Z,99.90
2022-09-05T09:51:05.660Z,99.90
2022-09-05T09:54:08.529Z,99.90
2022-09-05T09:57:23.113Z,99.90
2022-09-05T10:00:14.694Z,99.90
2022-09-05T10:08:34.578Z,99.90
2022-09-05T10:10:45.322Z,99.90
2022-09-05T10:14:49.391Z,99.90
2022-09-05T10:18:12.911Z,99.90
2022-09-05T10:21:17.825Z,99.90
2022-09-05T10:24:30.861Z,99.90
2022-09-05T10:27:38.769Z,99.90
2022-09-05T10:32:31.253Z,99.90
2022-09-05T10:35:13.750Z,99.90
2022-09-05T10:37:29.326Z,99.90
2022-09-05T10:40:20.494Z,99.90
2022-09-05T10:43:14.874Z,99.90
2022-09-05T10:46:14.665Z,99.90
2022-09-05T10:49:14.402Z,99.90
2022-09-05T10:52:18.733Z,99.90
2022-09-05T10:55:17.290Z,99.90
2022-09-05T10:58:16.722Z,99.90
2022-09-05T11:02:29.396Z,99.90
2022-09-05T11:04:50.185Z,99.90
2022-09-05T11:07:42.086Z,99.90
2022-09-05T11:10:34.773Z,99.90
2022-09-05T11:13:39.389Z,99.90
2022-09-05T11:16:35.113Z,99.90
2022-09-05T11:19:31.005Z,99.90
2022-09-05T11:22:23.961Z,99.90
2022-09-05T11:25:18.771Z,99.90
2022-09-05T11:28:17.026Z,99.90
2022-09-05T11:31:12.335Z,99.90
2022-09-05T11:39:47.612Z,99.90
2022-09-05T11:40:06.457Z,99.90
2022-09-05T11:41:58.194Z,99.90
2022-09-05T11:45:05.681Z,99.90
2022-09-05T11:48:34.842Z,99.90
2022-09-05T11:52:08.505Z,99.90
2022-09-05T11:55:20.960Z,99.90
2022-09-05T11:58:45.284Z,99.90
2022-09-05T12:01:44.057Z,99.90
2022-09-05T12:05:51.165Z,99.90
2022-09-05T12:08:04.274Z,99.90
2022-09-05T12:11:03.572Z,99.90
2022-09-05T12:14:01.194Z,99.90
2022-09-05T12:17:34.864Z,99.90
2022-09-05T12:20:33.674Z,99.90
2022-09-05T12:24:11.589Z,99.90
2022-09-05T12:27:38.930Z,99.90
2022-09-05T12:30:07.873Z,99.90
2022-09-05T12:36:03.555Z,99.90
2022-09-05T12:40:54.589Z,99.90
2022-09-05T12:40:57.746Z,99.90
2022-09-05T12:42:55.991Z,99.90
2022-09-05T12:48:53.883Z,99.90
2022-09-05T12:51:47.860Z,99.90
2022-09-05T12:54:42.711Z,99.90
2022-09-05T13:00:42.505Z,99.90
2022-09-05T13:03:11.485Z,99.90
2022-09-05T13:04:16.991Z,99.90
2022-09-05T13:07:09.430Z,99.90
2022-09-05T13:11:42.780Z,99.90
2022-09-05T13:14:54.320Z,99.90
2022-09-05T13:16:23.164Z,99.90
2022-09-05T13:19:28.245Z,99.90
2022-09-05T13:22:20.220Z,99.90
2022-09-05T13:25:11.510Z,99.90
2022-09-05T13:28:03.714Z,99.90
2022-09-05T13:35:11.024Z,99.90
2022-09-05T13:37:59.035Z,99.90
2022-09-05T13:38:11.256Z,99.90
2022-09-05T13:40:32.430Z,99.90
2022-09-05T13:43:26.426Z,99.90
2022-09-05T13:46:20.053Z,99.90
2022-09-05T13:49:25.271Z,99.90
2022-09-05T13:52:28.965Z,99.90
2022-09-05T13:55:23.452Z,99.90
2022-09-05T13:58:16.144Z,99.90
2022-09-05T14:01:34.928Z,99.90
2022-09-05T14:05:05.385Z,99.90
2022-09-05T14:08:24.322Z,99.90
2022-09-05T14:11:45.263Z,99.30
2022-09-05T14:17:59.881Z,99.30
2022-09-05T14:21:08.715Z,99.40
2022-09-05T14:24:05.718Z,99.50
2022-09-05T14:27:11.961Z,99.70
2022-09-05T14:29:58.604Z,99.70
2022-09-05T14:37:46.366Z,99.50
2022-09-05T14:38:00.467Z,99.30
2022-09-05T14:40:24.177Z,99.00
2022-09-05T14:43:42.781Z,99.10
2022-09-05T14:46:45.155Z,99.00
2022-09-05T14:50:03.895Z,98.90
2022-09-05T14:57:18.927Z,98.80
2022-09-05T15:02:42.068Z,98.50
2022-09-05T15:02:57.548Z,98.50
2022-09-05T15:05:44.670Z,98.50
2022-09-05T15:10:23.924Z,98.80
2022-09-05T15:12:24.452Z,98.70
2022-09-05T15:15:00.430Z,98.60
2022-09-05T15:17:49.578Z,98.30
2022-09-05T15:20:41.848Z,98.50
2022-09-05T15:23:32.535Z,98.80
2022-09-05T15:26:25.861Z,98.70
2022-09-05T15:29:15.339Z,98.50
2022-09-05T15:32:14.973Z,98.50
2022-09-05T15:35:01.494Z,98.30
2022-09-05T15:37:50.049Z,98.50
2022-09-05T15:40:36.324Z,98.60
2022-09-05T15:43:24.901Z,98.40
2022-09-05T15:46:13.599Z,98.10
2022-09-05T15:49:00.198Z,98.30
2022-09-05T15:51:50.677Z,98.30
2022-09-05T15:54:39.962Z,98.20
2022-09-05T15:57:31.389Z,98.10
2022-09-05T16:00:51.311Z,98.20
2022-09-05T16:04:36.444Z,97.90
2022-09-05T16:10:35.965Z,97.80
2022-09-05T16:10:45.591Z,97.70
2022-09-05T16:13:13.671Z,97.70
2022-09-05T16:20:31.598Z,97.80
2022-09-05T16:23:17.634Z,97.80
2022-09-05T16:23:30.680Z,97.80
2022-09-05T16:25:34.489Z,97.80
2022-09-05T16:28:23.794Z,97.80
2022-09-05T16:31:15.657Z,97.90
2022-09-05T16:34:11.785Z,97.90
2022-09-05T16:37:09.326Z,97.90
2022-09-05T16:40:04.127Z,97.90
2022-09-05T16:42:53.963Z,98.00
2022-09-05T16:45:47.354Z,98.10
2022-09-05T16:48:45.441Z,98.30
2022-09-05T16:51:37.915Z,98.50
2022-09-05T16:54:31.801Z,98.70
2022-09-05T16:57:23.237Z,98.90
2022-09-05T17:00:11.310Z,99.20
2022-09-05T17:03:17.718Z,99.40
2022-09-05T17:06:26.239Z,99.60
2022-09-05T17:09:22.928Z,99.70
2022-09-05T17:12:15.867Z,99.90
2022-09-05T17:15:11.438Z,99.90
2022-09-05T17:18:21.228Z,99.90
2022-09-05T17:21:12.800Z,99.90
2022-09-05T17:29:15.790Z,99.90
2022-09-05T17:29:25.040Z,99.90
2022-09-05T17:34:38.521Z,99.90
2022-09-05T17:37:49.081Z,99.90
2022-09-05T17:41:07.658Z,99.90
2022-09-05T17:44:07.330Z,99.90
2022-09-05T17:47:06.757Z,99.90
2022-09-05T17:50:12.890Z,99.90
2022-09-05T17:53:25.706Z,99.90
2022-09-05T17:56:27.847Z,99.90
2022-09-05T17:59:28.788Z,99.90
2022-09-05T18:02:33.277Z,99.90
2022-09-05T18:06:01.031Z,99.90
2022-09-05T18:08:52.930Z,99.90
2022-09-05T18:12:04.473Z,99.90
2022-09-05T18:15:04.939Z,99.90
2022-09-05T18:18:05.211Z,99.90
2022-09-05T18:21:15.998Z,99.90
2022-09-05T18:24:12.535Z,99.90
2022-09-05T18:27:12.980Z,99.90
2022-09-05T18:30:12.915Z,99.90
2022-09-05T18:33:53.418Z,99.90
2022-09-05T18:36:35.765Z,99.90
2022-09-05T18:39:41.268Z,99.90
2022-09-05T18:42:33.858Z,99.90
2022-09-05T18:45:28.751Z,99.90
2022-09-05T18:48:26.535Z,99.90
2022-09-05T18:51:22.781Z,99.90
2022-09-05T18:54:20.209Z,99.90
2022-09-05T18:57:26.487Z,99.90
2022-09-05T19:00:35.203Z,99.90
2022-09-05T19:03:34.135Z,99.90
2022-09-05T19:06:35.966Z,99.90
2022-09-05T19:09:29.976Z,99.90
2022-09-05T19:12:33.303Z,99.90
2022-09-05T19:15:24.706Z,99.90
2022-09-05T19:18:26.890Z,99.90
2022-09-05T19:21:19.234Z,99.90
2022-09-05T19:24:10.620Z,99.90
2022-09-05T19:26:59.812Z,99.90
2022-09-05T19:36:48.936Z,99.90
2022-09-05T19:37:13.091Z,99.90
2022-09-05T19:37:14.646Z,99.90
2022-09-05T19:46:24.793Z,99.90
2022-09-05T19:47:42.239Z,99.90
2022-09-05T19:47:43.039Z,99.90
2022-09-05T19:49:05.003Z,99.90
2022-09-05T19:51:52.894Z,99.90
2022-09-05T19:54:42.941Z,99.90
2022-09-05T19:57:30.635Z,99.90
2022-09-05T20:00:22.749Z,99.90
2022-09-05T20:03:09.630Z,99.90
2022-09-05T20:05:55.927Z,99.90
2022-09-05T20:08:43.913Z,99.90
2022-09-05T20:11:39.973Z,99.90
2022-09-05T20:14:36.668Z,99.90
2022-09-05T20:17:26.673Z,99.90
2022-09-05T20:20:16.387Z,99.90
2022-09-05T20:23:06.174Z,99.90
2022-09-05T20:25:56.005Z,99.90
2022-09-05T20:28:43.241Z,99.90
2022-09-05T20:31:33.032Z,99.90
2022-09-05T20:36:06.870Z,99.90
2022-09-05T20:43:15.897Z,99.90
2022-09-05T20:43:23.238Z,99.90
2022-09-05T20:43:53.661Z,99.90
2022-09-05T20:50:37.299Z,99.90
2022-09-05T20:54:14.408Z,99.90
2022-09-05T20:54:20.538Z,99.90
2022-09-05T20:56:22.409Z,99.90
2022-09-05T20:59:11.335Z,99.90
2022-09-05T21:02:03.062Z,99.90
2022-09-05T21:05:10.102Z,99.90
2022-09-05T21:08:24.695Z,99.90
2022-09-05T21:11:13.474Z,99.90
2022-09-05T21:14:02.973Z,99.90
2022-09-05T21:17:00.470Z,99.90
2022-09-05T21:19:53.240Z,99.90
2022-09-05T21:22:43.626Z,99.90
2022-09-05T21:25:41.433Z,99.90
2022-09-05T21:28:37.281Z,99.90
2022-09-05T21:31:26.222Z,99.90
2022-09-05T21:34:22.096Z,99.90
2022-09-05T21:37:12.556Z,99.90
2022-09-05T21:40:01.193Z,99.90
2022-09-05T21:47:29.440Z,99.90
2022-09-05T21:47:42.151Z,99.90
2022-09-05T21:49:03.215Z,99.90
2022-09-05T21:51:53.122Z,99.90
2022-09-05T21:59:17.851Z,99.90
2022-09-05T21:59:19.092Z,99.90
2022-09-05T22:00:56.041Z,99.90
2022-09-05T22:03:43.690Z,99.90
2022-09-05T22:06:31.852Z,99.90
2022-09-05T22:09:20.283Z,99.90
2022-09-05T22:12:14.589Z,99.90
2022-09-05T22:15:28.070Z,99.90
2022-09-05T22:18:18.279Z,99.90
2022-09-05T22:21:32.853Z,99.90
2022-09-05T22:24:14.200Z,99.90
2022-09-05T22:27:11.101Z,99.90
2022-09-05T22:29:59.813Z,99.90
2022-09-05T22:32:46.249Z,99.90
2022-09-05T22:35:33.089Z,99.90
2022-09-05T22:38:21.305Z,99.90
2022-09-05T22:41:07.966Z,99.90
2022-09-05T22:43:55.800Z,99.90
2022-09-05T22:46:42.243Z,99.90
2022-09-05T22:49:28.653Z,99.90
2022-09-05T22:52:15.189Z,99.90
2022-09-05T22:55:01.820Z,99.90
2022-09-05T22:57:48.085Z,99.90
2022-09-05T23:00:36.369Z,99.90
2022-09-05T23:03:23.082Z,99.90
2022-09-05T23:06:11.089Z,99.90
2022-09-05T23:08:57.725Z,99.90
2022-09-05T23:11:44.378Z,99.90
2022-09-05T23:14:30.840Z,99.90
2022-09-05T23:17:18.538Z,99.90
2022-09-05T23:20:05.666Z,99.90
2022-09-05T23:22:52.551Z,99.90
2022-09-05T23:25:39.051Z,99.90
2022-09-05T23:28:25.956Z,99.90
2022-09-05T23:31:13.084Z,99.90
2022-09-05T23:34:00.790Z,99.90
2022-09-05T23:36:47.111Z,99.90
2022-09-05T23:39:33.636Z,99.90
2022-09-05T23:42:20.473Z,99.90
2022-09-05T23:45:08.059Z,99.90
2022-09-05T23:47:54.870Z,99.90
2022-09-05T23:50:42.649Z,99.90
2022-09-05T23:53:29.082Z,99.90
2022-09-05T23:56:15.693Z,99.90
2022-09-05T23:59:01.872Z,99.90
